sensor_id;sensor_type;location;lat;lon;timestamp;pressure;altitude;pressure_sealevel;temperature;humidity
60874;BME280;46715;40.642;-7.920;2023-10-31T00:00:50;74306.28;;;-146.45;100.00
60874;BME280;46715;40.642;-7.920;2023-10-31T00:02:51;74308.28;;;-146.45;100.00
60874;BME280;46715;40.642;-7.920;2023-10-31T00:04:51;74304.31;;;-146.45;100.00
60874;BME280;46715;40.642;-7.920;2023-10-31T00:06:52;74302.31;;;-146.45;100.00
60874;BME280;46715;40.642;-7.920;2023-10-31T00:08:53;74304.31;;;-146.45;100.00
60874;BME280;46715;40.642;-7.920;2023-10-31T00:10:53;74304.31;;;-146.45;100.00
60874;BME280;46715;40.642;-7.920;2023-10-31T00:12:54;74298.34;;;-146.45;100.00
60874;BME280;46715;40.642;-7.920;2023-10-31T00:14:55;74304.31;;;-146.45;100.00
60874;BME280;46715;40.642;-7.920;2023-10-31T00:16:55;74304.31;;;-146.45;100.00
60874;BME280;46715;40.642;-7.920;2023-10-31T00:18:56;74306.28;;;-146.45;100.00
60874;BME280;46715;40.642;-7.920;2023-10-31T00:20:57;74308.28;;;-146.45;100.00
60874;BME280;46715;40.642;-7.920;2023-10-31T00:22:58;74304.31;;;-146.45;100.00
60874;BME280;46715;40.642;-7.920;2023-10-31T00:24:58;74302.31;;;-146.45;100.00
60874;BME280;46715;40.642;-7.920;2023-10-31T00:26:59;74300.31;;;-146.45;100.00
60874;BME280;46715;40.642;-7.920;2023-10-31T00:29:00;74298.34;;;-146.45;100.00
60874;BME280;46715;40.642;-7.920;2023-10-31T00:31:00;74306.28;;;-146.45;100.00
60874;BME280;46715;40.642;-7.920;2023-10-31T00:33:02;74296.34;;;-146.45;100.00
60874;BME280;46715;40.642;-7.920;2023-10-31T00:35:02;74298.34;;;-146.45;100.00
60874;BME280;46715;40.642;-7.920;2023-10-31T00:37:03;74298.34;;;-146.45;100.00
60874;BME280;46715;40.642;-7.920;2023-10-31T00:39:04;74296.34;;;-146.45;100.00
60874;BME280;46715;40.642;-7.920;2023-10-31T00:41:05;74288.41;;;-146.45;100.00
60874;BME280;46715;40.642;-7.920;2023-10-31T00:43:05;74290.38;;;-146.45;100.00
60874;BME280;46715;40.642;-7.920;2023-10-31T00:45:07;74284.41;;;-146.45;100.00
60874;BME280;46715;40.642;-7.920;2023-10-31T00:47:08;74290.38;;;-146.45;100.00
60874;BME280;46715;40.642;-7.920;2023-10-31T00:49:08;74288.41;;;-146.45;100.00
60874;BME280;46715;40.642;-7.920;2023-10-31T00:51:09;74294.34;;;-146.45;100.00
60874;BME280;46715;40.642;-7.920;2023-10-31T00:53:10;74300.31;;;-146.45;100.00
60874;BME280;46715;40.642;-7.920;2023-10-31T00:55:10;74308.28;;;-146.45;100.00
60874;BME280;46715;40.642;-7.920;2023-10-31T00:57:11;74312.25;;;-146.45;100.00
60874;BME280;46715;40.642;-7.920;2023-10-31T00:59:12;74316.22;;;-146.45;100.00
60874;BME280;46715;40.642;-7.920;2023-10-31T01:01:13;74312.25;;;-146.45;100.00
60874;BME280;46715;40.642;-7.920;2023-10-31T01:03:16;74330.16;;;-146.45;100.00
60874;BME280;46715;40.642;-7.920;2023-10-31T01:05:16;74332.13;;;-146.45;100.00
60874;BME280;46715;40.642;-7.920;2023-10-31T01:07:17;74340.09;;;-146.45;100.00
60874;BME280;46715;40.642;-7.920;2023-10-31T01:09:18;74338.09;;;-146.45;100.00
60874;BME280;46715;40.642;-7.920;2023-10-31T01:11:18;74340.09;;;-146.45;100.00
60874;BME280;46715;40.642;-7.920;2023-10-31T01:13:19;74332.13;;;-146.45;100.00
60874;BME280;46715;40.642;-7.920;2023-10-31T01:15:20;74326.19;;;-146.45;100.00
60874;BME280;46715;40.642;-7.920;2023-10-31T01:17:21;74326.19;;;-146.45;100.00
60874;BME280;46715;40.642;-7.920;2023-10-31T01:19:22;74320.22;;;-146.45;100.00
60874;BME280;46715;40.642;-7.920;2023-10-31T01:21:22;74326.19;;;-146.45;100.00
60874;BME280;46715;40.642;-7.920;2023-10-31T01:23:23;74312.25;;;-146.45;100.00
60874;BME280;46715;40.642;-7.920;2023-10-31T01:25:24;74308.28;;;-146.45;100.00
60874;BME280;46715;40.642;-7.920;2023-10-31T01:27:25;74300.31;;;-146.45;100.00
60874;BME280;46715;40.642;-7.920;2023-10-31T01:29:26;74296.34;;;-146.45;100.00
60874;BME280;46715;40.642;-7.920;2023-10-31T01:31:27;74302.31;;;-146.45;100.00
60874;BME280;46715;40.642;-7.920;2023-10-31T01:33:28;74302.31;;;-146.45;100.00
60874;BME280;46715;40.642;-7.920;2023-10-31T01:35:57;74296.34;;;-146.45;100.00
60874;BME280;46715;40.642;-7.920;2023-10-31T01:37:57;74298.34;;;-146.45;100.00
60874;BME280;46715;40.642;-7.920;2023-10-31T01:39:58;74300.31;;;-146.45;100.00
60874;BME280;46715;40.642;-7.920;2023-10-31T01:41:59;74312.25;;;-146.45;100.00
60874;BME280;46715;40.642;-7.920;2023-10-31T01:44:00;74310.28;;;-146.45;100.00
60874;BME280;46715;40.642;-7.920;2023-10-31T01:46:01;74308.28;;;-146.45;100.00
60874;BME280;46715;40.642;-7.920;2023-10-31T01:48:02;74320.22;;;-146.45;100.00
60874;BME280;46715;40.642;-7.920;2023-10-31T01:50:03;74328.16;;;-146.45;100.00
60874;BME280;46715;40.642;-7.920;2023-10-31T01:52:07;74332.13;;;-146.45;100.00
60874;BME280;46715;40.642;-7.920;2023-10-31T01:54:09;74340.09;;;-146.45;100.00
60874;BME280;46715;40.642;-7.920;2023-10-31T01:56:10;74346.06;;;-146.45;100.00
60874;BME280;46715;40.642;-7.920;2023-10-31T01:58:11;74358.00;;;-146.45;100.00
60874;BME280;46715;40.642;-7.920;2023-10-31T02:00:14;74354.00;;;-146.45;100.00
60874;BME280;46715;40.642;-7.920;2023-10-31T02:02:16;74356.00;;;-146.45;100.00
60874;BME280;46715;40.642;-7.920;2023-10-31T02:04:17;74363.97;;;-146.45;100.00
60874;BME280;46715;40.642;-7.920;2023-10-31T02:06:17;74369.91;;;-146.45;100.00
60874;BME280;46715;40.642;-7.920;2023-10-31T02:08:18;74371.91;;;-146.45;100.00
60874;BME280;46715;40.642;-7.920;2023-10-31T02:10:19;74383.84;;;-146.45;100.00
60874;BME280;46715;40.642;-7.920;2023-10-31T02:12:34;74395.78;;;-146.45;100.00
60874;BME280;46715;40.642;-7.920;2023-10-31T02:14:35;74407.69;;;-146.45;100.00
60874;BME280;46715;40.642;-7.920;2023-10-31T02:16:35;74405.72;;;-146.45;100.00
60874;BME280;46715;40.642;-7.920;2023-10-31T02:18:36;74415.66;;;-146.45;100.00
60874;BME280;46715;40.642;-7.920;2023-10-31T02:20:37;74421.63;;;-146.45;100.00
60874;BME280;46715;40.642;-7.920;2023-10-31T02:22:38;74429.56;;;-146.45;100.00
60874;BME280;46715;40.642;-7.920;2023-10-31T02:24:39;74439.53;;;-146.45;100.00
60874;BME280;46715;40.642;-7.920;2023-10-31T02:26:39;74439.53;;;-146.45;100.00
60874;BME280;46715;40.642;-7.920;2023-10-31T02:28:40;74447.47;;;-146.45;100.00
60874;BME280;46715;40.642;-7.920;2023-10-31T02:30:41;74455.44;;;-146.45;100.00
60874;BME280;46715;40.642;-7.920;2023-10-31T02:32:42;74463.38;;;-146.45;100.00
60874;BME280;46715;40.642;-7.920;2023-10-31T02:34:45;74463.38;;;-146.45;100.00
60874;BME280;46715;40.642;-7.920;2023-10-31T02:36:46;74471.34;;;-146.45;100.00
60874;BME280;46715;40.642;-7.920;2023-10-31T02:38:47;74483.28;;;-146.45;100.00
60874;BME280;46715;40.642;-7.920;2023-10-31T02:40:47;74483.28;;;-146.45;100.00
60874;BME280;46715;40.642;-7.920;2023-10-31T02:42:48;74485.25;;;-146.45;100.00
60874;BME280;46715;40.642;-7.920;2023-10-31T02:44:49;74487.25;;;-146.45;100.00
60874;BME280;46715;40.642;-7.920;2023-10-31T02:46:49;74485.25;;;-146.45;100.00
60874;BME280;46715;40.642;-7.920;2023-10-31T02:48:50;74493.22;;;-146.45;100.00
60874;BME280;46715;40.642;-7.920;2023-10-31T02:50:51;74499.19;;;-146.45;100.00
60874;BME280;46715;40.642;-7.920;2023-10-31T02:52:52;74505.13;;;-146.45;100.00
60874;BME280;46715;40.642;-7.920;2023-10-31T02:54:52;74501.16;;;-146.45;100.00
60874;BME280;46715;40.642;-7.920;2023-10-31T02:56:53;74503.16;;;-146.45;100.00
60874;BME280;46715;40.642;-7.920;2023-10-31T02:58:54;74505.13;;;-146.45;100.00
60874;BME280;46715;40.642;-7.920;2023-10-31T03:00:54;74499.19;;;-146.45;100.00
60874;BME280;46715;40.642;-7.920;2023-10-31T03:02:55;74499.19;;;-146.45;100.00
60874;BME280;46715;40.642;-7.920;2023-10-31T03:04:56;74503.16;;;-146.45;100.00
60874;BME280;46715;40.642;-7.920;2023-10-31T03:06:57;74511.09;;;-146.45;100.00
60874;BME280;46715;40.642;-7.920;2023-10-31T03:08:57;74507.13;;;-146.45;100.00
60874;BME280;46715;40.642;-7.920;2023-10-31T03:10:58;74505.13;;;-146.45;100.00
60874;BME280;46715;40.642;-7.920;2023-10-31T03:12:58;74499.19;;;-146.45;100.00
60874;BME280;46715;40.642;-7.920;2023-10-31T03:14:59;74507.13;;;-146.45;100.00
60874;BME280;46715;40.642;-7.920;2023-10-31T03:17:00;74503.16;;;-146.45;100.00
60874;BME280;46715;40.642;-7.920;2023-10-31T03:19:01;74495.19;;;-146.45;100.00
60874;BME280;46715;40.642;-7.920;2023-10-31T03:21:01;74489.22;;;-146.45;100.00
60874;BME280;46715;40.642;-7.920;2023-10-31T03:23:02;74479.28;;;-146.45;100.00
60874;BME280;46715;40.642;-7.920;2023-10-31T03:25:05;74469.34;;;-146.45;100.00
60874;BME280;46715;40.642;-7.920;2023-10-31T03:27:06;74463.38;;;-146.45;100.00
60874;BME280;46715;40.642;-7.920;2023-10-31T03:29:07;74457.41;;;-146.45;100.00
60874;BME280;46715;40.642;-7.920;2023-10-31T03:31:08;74447.47;;;-146.45;100.00
60874;BME280;46715;40.642;-7.920;2023-10-31T03:33:09;74439.53;;;-146.45;100.00
60874;BME280;46715;40.642;-7.920;2023-10-31T03:35:10;74437.53;;;-146.45;100.00
60874;BME280;46715;40.642;-7.920;2023-10-31T03:37:11;74435.53;;;-146.45;100.00
60874;BME280;46715;40.642;-7.920;2023-10-31T03:39:12;74433.56;;;-146.45;100.00
60874;BME280;46715;40.642;-7.920;2023-10-31T03:41:13;74439.53;;;-146.45;100.00
60874;BME280;46715;40.642;-7.920;2023-10-31T03:43:13;74437.53;;;-146.45;100.00
60874;BME280;46715;40.642;-7.920;2023-10-31T03:45:14;74435.53;;;-146.45;100.00
60874;BME280;46715;40.642;-7.920;2023-10-31T03:47:15;74431.56;;;-146.45;100.00
60874;BME280;46715;40.642;-7.920;2023-10-31T03:49:15;74431.56;;;-146.45;100.00
60874;BME280;46715;40.642;-7.920;2023-10-31T03:51:16;74435.53;;;-146.45;100.00
60874;BME280;46715;40.642;-7.920;2023-10-31T03:53:17;74441.50;;;-146.45;100.00
60874;BME280;46715;40.642;-7.920;2023-10-31T03:55:18;74447.47;;;-146.45;100.00
60874;BME280;46715;40.642;-7.920;2023-10-31T03:57:19;74451.44;;;-146.45;100.00
60874;BME280;46715;40.642;-7.920;2023-10-31T03:59:20;74449.47;;;-146.45;100.00
60874;BME280;46715;40.642;-7.920;2023-10-31T04:01:21;74443.50;;;-146.45;100.00
60874;BME280;46715;40.642;-7.920;2023-10-31T04:03:21;74439.53;;;-146.45;100.00
60874;BME280;46715;40.642;-7.920;2023-10-31T04:05:22;74443.50;;;-146.45;100.00
60874;BME280;46715;40.642;-7.920;2023-10-31T04:07:23;74439.53;;;-146.45;100.00
60874;BME280;46715;40.642;-7.920;2023-10-31T04:09:24;74443.50;;;-146.45;100.00
60874;BME280;46715;40.642;-7.920;2023-10-31T04:11:24;74441.50;;;-146.45;100.00
60874;BME280;46715;40.642;-7.920;2023-10-31T04:13:25;74441.50;;;-146.45;100.00
60874;BME280;46715;40.642;-7.920;2023-10-31T04:15:26;74439.53;;;-146.45;100.00
60874;BME280;46715;40.642;-7.920;2023-10-31T04:17:26;74441.50;;;-146.45;100.00
60874;BME280;46715;40.642;-7.920;2023-10-31T04:19:27;74447.47;;;-146.45;100.00
60874;BME280;46715;40.642;-7.920;2023-10-31T04:21:28;74455.44;;;-146.45;100.00
60874;BME280;46715;40.642;-7.920;2023-10-31T04:23:28;74463.38;;;-146.45;100.00
60874;BME280;46715;40.642;-7.920;2023-10-31T04:25:29;74473.31;;;-146.45;100.00
60874;BME280;46715;40.642;-7.920;2023-10-31T04:27:30;74469.34;;;-146.45;100.00
60874;BME280;46715;40.642;-7.920;2023-10-31T04:29:30;74467.34;;;-146.45;100.00
60874;BME280;46715;40.642;-7.920;2023-10-31T04:31:31;74475.31;;;-146.45;100.00
60874;BME280;46715;40.642;-7.920;2023-10-31T04:33:32;74475.31;;;-146.45;100.00
60874;BME280;46715;40.642;-7.920;2023-10-31T04:35:33;74475.31;;;-146.45;100.00
60874;BME280;46715;40.642;-7.920;2023-10-31T04:37:34;74477.31;;;-146.45;100.00
60874;BME280;46715;40.642;-7.920;2023-10-31T04:39:34;74477.31;;;-146.45;100.00
60874;BME280;46715;40.642;-7.920;2023-10-31T04:41:35;74473.31;;;-146.45;100.00
60874;BME280;46715;40.642;-7.920;2023-10-31T04:43:36;74475.31;;;-146.45;100.00
60874;BME280;46715;40.642;-7.920;2023-10-31T04:45:37;74479.28;;;-146.45;100.00
60874;BME280;46715;40.642;-7.920;2023-10-31T04:47:38;74479.28;;;-146.45;100.00
60874;BME280;46715;40.642;-7.920;2023-10-31T04:49:38;74485.25;;;-146.45;100.00
60874;BME280;46715;40.642;-7.920;2023-10-31T04:51:39;74483.28;;;-146.45;100.00
60874;BME280;46715;40.642;-7.920;2023-10-31T04:53:40;74475.31;;;-146.45;100.00
60874;BME280;46715;40.642;-7.920;2023-10-31T04:55:40;74475.31;;;-146.45;100.00
60874;BME280;46715;40.642;-7.920;2023-10-31T04:57:41;74473.31;;;-146.45;100.00
60874;BME280;46715;40.642;-7.920;2023-10-31T04:59:43;74473.31;;;-146.45;100.00
60874;BME280;46715;40.642;-7.920;2023-10-31T05:01:50;74473.31;;;-146.45;100.00
60874;BME280;46715;40.642;-7.920;2023-10-31T05:03:51;74471.34;;;-146.45;100.00
60874;BME280;46715;40.642;-7.920;2023-10-31T05:05:54;74473.31;;;-146.45;100.00
60874;BME280;46715;40.642;-7.920;2023-10-31T05:07:54;74473.31;;;-146.45;100.00
60874;BME280;46715;40.642;-7.920;2023-10-31T05:09:55;74473.31;;;-146.45;100.00
60874;BME280;46715;40.642;-7.920;2023-10-31T05:11:56;74475.31;;;-146.45;100.00
60874;BME280;46715;40.642;-7.920;2023-10-31T05:13:57;74473.31;;;-146.45;100.00
60874;BME280;46715;40.642;-7.920;2023-10-31T05:15:58;74471.34;;;-146.45;100.00
60874;BME280;46715;40.642;-7.920;2023-10-31T05:17:59;74479.28;;;-146.45;100.00
60874;BME280;46715;40.642;-7.920;2023-10-31T05:19:59;74483.28;;;-146.45;100.00
60874;BME280;46715;40.642;-7.920;2023-10-31T05:22:00;74473.31;;;-146.45;100.00
60874;BME280;46715;40.642;-7.920;2023-10-31T05:24:01;74475.31;;;-146.45;100.00
60874;BME280;46715;40.642;-7.920;2023-10-31T05:26:06;74485.25;;;-146.45;100.00
60874;BME280;46715;40.642;-7.920;2023-10-31T05:28:06;74479.28;;;-146.45;100.00
60874;BME280;46715;40.642;-7.920;2023-10-31T05:30:07;74479.28;;;-146.45;100.00
60874;BME280;46715;40.642;-7.920;2023-10-31T05:32:09;74483.28;;;-146.45;100.00
60874;BME280;46715;40.642;-7.920;2023-10-31T05:34:10;74481.28;;;-146.45;100.00
60874;BME280;46715;40.642;-7.920;2023-10-31T05:36:24;74477.31;;;-146.45;100.00
60874;BME280;46715;40.642;-7.920;2023-10-31T05:38:25;74471.34;;;-146.45;100.00
60874;BME280;46715;40.642;-7.920;2023-10-31T05:40:27;74477.31;;;-146.45;100.00
60874;BME280;46715;40.642;-7.920;2023-10-31T05:42:29;74475.31;;;-146.45;100.00
60874;BME280;46715;40.642;-7.920;2023-10-31T05:44:30;74485.25;;;-146.45;100.00
60874;BME280;46715;40.642;-7.920;2023-10-31T05:46:31;74485.25;;;-146.45;100.00
60874;BME280;46715;40.642;-7.920;2023-10-31T05:48:32;74485.25;;;-146.45;100.00
60874;BME280;46715;40.642;-7.920;2023-10-31T05:50:32;74483.28;;;-146.45;100.00
60874;BME280;46715;40.642;-7.920;2023-10-31T05:52:33;74493.22;;;-146.45;100.00
60874;BME280;46715;40.642;-7.920;2023-10-31T05:54:34;74481.28;;;-146.45;100.00
60874;BME280;46715;40.642;-7.920;2023-10-31T05:56:35;74491.22;;;-146.45;100.00
60874;BME280;46715;40.642;-7.920;2023-10-31T05:58:37;74491.22;;;-146.45;100.00
60874;BME280;46715;40.642;-7.920;2023-10-31T06:00:37;74485.25;;;-146.45;100.00
60874;BME280;46715;40.642;-7.920;2023-10-31T06:02:38;74481.28;;;-146.45;100.00
60874;BME280;46715;40.642;-7.920;2023-10-31T06:04:38;74465.38;;;-146.45;100.00
60874;BME280;46715;40.642;-7.920;2023-10-31T06:06:39;74461.38;;;-146.45;100.00
60874;BME280;46715;40.642;-7.920;2023-10-31T06:08:41;74455.44;;;-146.45;100.00
60874;BME280;46715;40.642;-7.920;2023-10-31T06:10:41;74461.38;;;-146.45;100.00
60874;BME280;46715;40.642;-7.920;2023-10-31T06:12:42;74457.41;;;-146.45;100.00
60874;BME280;46715;40.642;-7.920;2023-10-31T06:14:43;74457.41;;;-146.45;100.00
60874;BME280;46715;40.642;-7.920;2023-10-31T06:16:43;74463.38;;;-146.45;100.00
60874;BME280;46715;40.642;-7.920;2023-10-31T06:18:44;74463.38;;;-146.45;100.00
60874;BME280;46715;40.642;-7.920;2023-10-31T06:20:45;74463.38;;;-146.45;100.00
60874;BME280;46715;40.642;-7.920;2023-10-31T06:22:46;74463.38;;;-146.45;100.00
60874;BME280;46715;40.642;-7.920;2023-10-31T06:24:46;74465.38;;;-146.45;100.00
60874;BME280;46715;40.642;-7.920;2023-10-31T06:26:47;74469.34;;;-146.45;100.00
60874;BME280;46715;40.642;-7.920;2023-10-31T06:28:47;74467.34;;;-146.45;100.00
60874;BME280;46715;40.642;-7.920;2023-10-31T06:30:48;74469.34;;;-146.45;100.00
60874;BME280;46715;40.642;-7.920;2023-10-31T06:32:49;74475.31;;;-146.45;100.00
60874;BME280;46715;40.642;-7.920;2023-10-31T06:34:49;74481.28;;;-146.45;100.00
60874;BME280;46715;40.642;-7.920;2023-10-31T06:36:50;74483.28;;;-146.45;100.00
60874;BME280;46715;40.642;-7.920;2023-10-31T06:38:52;74491.22;;;-146.45;100.00
60874;BME280;46715;40.642;-7.920;2023-10-31T06:40:53;74491.22;;;-146.45;100.00
60874;BME280;46715;40.642;-7.920;2023-10-31T06:42:54;74501.16;;;-146.45;100.00
60874;BME280;46715;40.642;-7.920;2023-10-31T06:44:54;74503.16;;;-146.45;100.00
60874;BME280;46715;40.642;-7.920;2023-10-31T06:46:55;74505.13;;;-146.45;100.00
60874;BME280;46715;40.642;-7.920;2023-10-31T06:48:55;74509.13;;;-146.45;100.00
60874;BME280;46715;40.642;-7.920;2023-10-31T06:50:56;74515.09;;;-146.45;100.00
60874;BME280;46715;40.642;-7.920;2023-10-31T06:52:57;74513.09;;;-146.45;100.00
60874;BME280;46715;40.642;-7.920;2023-10-31T06:54:57;74513.09;;;-146.45;100.00
60874;BME280;46715;40.642;-7.920;2023-10-31T06:56:58;74511.09;;;-146.45;100.00
60874;BME280;46715;40.642;-7.920;2023-10-31T06:58:59;74507.13;;;-146.45;100.00
60874;BME280;46715;40.642;-7.920;2023-10-31T07:00:59;74505.13;;;-146.45;100.00
60874;BME280;46715;40.642;-7.920;2023-10-31T07:03:00;74503.16;;;-146.45;100.00
60874;BME280;46715;40.642;-7.920;2023-10-31T07:05:06;74505.13;;;-146.45;100.00
60874;BME280;46715;40.642;-7.920;2023-10-31T07:07:07;74507.13;;;-146.45;100.00
60874;BME280;46715;40.642;-7.920;2023-10-31T07:09:08;74507.13;;;-146.45;100.00
60874;BME280;46715;40.642;-7.920;2023-10-31T07:11:10;74509.13;;;-146.45;100.00
60874;BME280;46715;40.642;-7.920;2023-10-31T07:13:11;74507.13;;;-146.45;100.00
60874;BME280;46715;40.642;-7.920;2023-10-31T07:15:12;74509.13;;;-146.45;100.00
60874;BME280;46715;40.642;-7.920;2023-10-31T07:17:13;74511.09;;;-146.45;100.00
60874;BME280;46715;40.642;-7.920;2023-10-31T07:19:14;74511.09;;;-146.45;100.00
60874;BME280;46715;40.642;-7.920;2023-10-31T07:21:14;74507.13;;;-146.45;100.00
60874;BME280;46715;40.642;-7.920;2023-10-31T07:23:15;74509.13;;;-146.45;100.00
60874;BME280;46715;40.642;-7.920;2023-10-31T07:25:16;74505.13;;;-146.45;100.00
60874;BME280;46715;40.642;-7.920;2023-10-31T07:27:17;74507.13;;;-146.45;100.00
60874;BME280;46715;40.642;-7.920;2023-10-31T07:29:19;74499.19;;;-146.45;100.00
60874;BME280;46715;40.642;-7.920;2023-10-31T07:31:20;74497.19;;;-146.45;100.00
60874;BME280;46715;40.642;-7.920;2023-10-31T07:33:21;74499.19;;;-146.45;100.00
60874;BME280;46715;40.642;-7.920;2023-10-31T07:35:22;74499.19;;;-146.45;100.00
60874;BME280;46715;40.642;-7.920;2023-10-31T07:37:23;74493.22;;;-146.45;100.00
60874;BME280;46715;40.642;-7.920;2023-10-31T07:39:24;74491.22;;;-146.45;100.00
60874;BME280;46715;40.642;-7.920;2023-10-31T07:41:24;74485.25;;;-146.45;100.00
60874;BME280;46715;40.642;-7.920;2023-10-31T07:43:26;74483.28;;;-146.45;100.00
60874;BME280;46715;40.642;-7.920;2023-10-31T07:45:26;74475.31;;;-146.45;100.00
60874;BME280;46715;40.642;-7.920;2023-10-31T07:47:27;74481.28;;;-146.45;100.00
60874;BME280;46715;40.642;-7.920;2023-10-31T07:49:28;74479.28;;;-146.45;100.00
60874;BME280;46715;40.642;-7.920;2023-10-31T07:51:28;74477.31;;;-146.45;100.00
60874;BME280;46715;40.642;-7.920;2023-10-31T07:53:29;74465.38;;;-146.45;100.00
60874;BME280;46715;40.642;-7.920;2023-10-31T07:55:29;74461.38;;;-146.45;100.00
60874;BME280;46715;40.642;-7.920;2023-10-31T07:57:30;74453.44;;;-146.45;100.00
60874;BME280;46715;40.642;-7.920;2023-10-31T07:59:33;74445.47;;;-146.45;100.00
60874;BME280;46715;40.642;-7.920;2023-10-31T08:01:34;74435.53;;;-146.45;100.00
60874;BME280;46715;40.642;-7.920;2023-10-31T08:03:36;74431.56;;;-146.45;100.00
60874;BME280;46715;40.642;-7.920;2023-10-31T08:05:38;74423.63;;;-146.45;100.00
60874;BME280;46715;40.642;-7.920;2023-10-31T08:07:38;74413.66;;;-146.45;100.00
60874;BME280;46715;40.642;-7.920;2023-10-31T08:09:39;74409.69;;;-146.45;100.00
60874;BME280;46715;40.642;-7.920;2023-10-31T08:11:40;74397.75;;;-146.45;100.00
60874;BME280;46715;40.642;-7.920;2023-10-31T08:13:46;74389.81;;;-146.45;100.00
60874;BME280;46715;40.642;-7.920;2023-10-31T08:15:48;74373.91;;;-146.45;100.00
60874;BME280;46715;40.642;-7.920;2023-10-31T08:17:48;74365.94;;;-146.45;100.00
60874;BME280;46715;40.642;-7.920;2023-10-31T08:19:58;74352.03;;;-146.45;100.00
60874;BME280;46715;40.642;-7.920;2023-10-31T08:22:11;74350.03;;;-146.45;100.00
60874;BME280;46715;40.642;-7.920;2023-10-31T08:24:14;74336.13;;;-146.45;100.00
60874;BME280;46715;40.642;-7.920;2023-10-31T08:26:15;74332.13;;;-146.45;100.00
60874;BME280;46715;40.642;-7.920;2023-10-31T08:28:19;74320.22;;;-146.45;100.00
60874;BME280;46715;40.642;-7.920;2023-10-31T08:30:28;74320.22;;;-146.45;100.00
60874;BME280;46715;40.642;-7.920;2023-10-31T08:32:39;74316.22;;;-146.45;100.00
60874;BME280;46715;40.642;-7.920;2023-10-31T08:34:40;74306.28;;;-146.45;100.00
60874;BME280;46715;40.642;-7.920;2023-10-31T08:36:41;74296.34;;;-146.45;100.00
60874;BME280;46715;40.642;-7.920;2023-10-31T08:38:42;74288.41;;;-146.45;100.00
60874;BME280;46715;40.642;-7.920;2023-10-31T08:40:43;74284.41;;;-146.45;100.00
60874;BME280;46715;40.642;-7.920;2023-10-31T08:42:43;74278.44;;;-146.45;100.00
60874;BME280;46715;40.642;-7.920;2023-10-31T08:44:44;74272.50;;;-146.45;100.00
60874;BME280;46715;40.642;-7.920;2023-10-31T08:46:45;74264.53;;;-146.45;100.00
60874;BME280;46715;40.642;-7.920;2023-10-31T08:48:46;74258.56;;;-146.45;100.00
60874;BME280;46715;40.642;-7.920;2023-10-31T08:50:53;74248.63;;;-146.45;100.00
60874;BME280;46715;40.642;-7.920;2023-10-31T08:52:54;74242.66;;;-146.45;100.00
60874;BME280;46715;40.642;-7.920;2023-10-31T08:54:56;74236.69;;;-146.45;100.00
60874;BME280;46715;40.642;-7.920;2023-10-31T08:56:56;74226.75;;;-146.45;100.00
60874;BME280;46715;40.642;-7.920;2023-10-31T08:59:00;74222.78;;;-146.45;100.00
60874;BME280;46715;40.642;-7.920;2023-10-31T09:01:04;74214.81;;;-146.45;100.00
60874;BME280;46715;40.642;-7.920;2023-10-31T09:03:04;74208.84;;;-146.45;100.00
60874;BME280;46715;40.642;-7.920;2023-10-31T09:05:05;74212.84;;;-146.45;100.00
60874;BME280;46715;40.642;-7.920;2023-10-31T09:07:07;74196.94;;;-146.45;100.00
60874;BME280;46715;40.642;-7.920;2023-10-31T09:09:08;74192.94;;;-146.45;100.00
60874;BME280;46715;40.642;-7.920;2023-10-31T09:11:10;74185.00;;;-146.45;100.00
60874;BME280;46715;40.642;-7.920;2023-10-31T09:13:14;74177.03;;;-146.45;100.00
60874;BME280;46715;40.642;-7.920;2023-10-31T09:15:15;74167.09;;;-146.45;100.00
60874;BME280;46715;40.642;-7.920;2023-10-31T09:17:16;74149.22;;;-146.45;100.00
60874;BME280;46715;40.642;-7.920;2023-10-31T09:19:25;74133.31;;;-146.45;100.00
60874;BME280;46715;40.642;-7.920;2023-10-31T09:21:29;74131.31;;;-146.45;100.00
60874;BME280;46715;40.642;-7.920;2023-10-31T09:23:30;74125.34;;;-146.45;100.00
60874;BME280;46715;40.642;-7.920;2023-10-31T09:25:38;74119.38;;;-146.45;100.00
60874;BME280;46715;40.642;-7.920;2023-10-31T09:27:43;74117.41;;;-146.45;100.00
60874;BME280;46715;40.642;-7.920;2023-10-31T09:29:47;74099.50;;;-146.45;100.00
60874;BME280;46715;40.642;-7.920;2023-10-31T09:31:48;74095.53;;;-146.45;100.00
60874;BME280;46715;40.642;-7.920;2023-10-31T09:33:49;74089.56;;;-146.45;100.00
60874;BME280;46715;40.642;-7.920;2023-10-31T09:35:49;74087.56;;;-146.45;100.00
60874;BME280;46715;40.642;-7.920;2023-10-31T09:37:50;74085.59;;;-146.45;100.00
60874;BME280;46715;40.642;-7.920;2023-10-31T09:39:51;74087.56;;;-146.45;100.00
60874;BME280;46715;40.642;-7.920;2023-10-31T09:41:51;74081.59;;;-146.45;100.00
60874;BME280;46715;40.642;-7.920;2023-10-31T09:43:52;74091.53;;;-146.45;100.00
60874;BME280;46715;40.642;-7.920;2023-10-31T09:45:53;74075.63;;;-146.45;100.00
60874;BME280;46715;40.642;-7.920;2023-10-31T09:47:55;74061.72;;;-146.45;95.01
60874;BME280;46715;40.642;-7.920;2023-10-31T09:49:56;74049.78;;;-146.45;91.54
60874;BME280;46715;40.642;-7.920;2023-10-31T09:51:57;74053.75;;;-146.45;93.91
60874;BME280;46715;40.642;-7.920;2023-10-31T09:54:02;74047.81;;;-146.45;94.25
60874;BME280;46715;40.642;-7.920;2023-10-31T09:56:04;74041.84;;;-146.45;92.22
60874;BME280;46715;40.642;-7.920;2023-10-31T09:58:05;74025.94;;;-146.45;87.97
60874;BME280;46715;40.642;-7.920;2023-10-31T10:00:06;74027.91;;;-146.45;91.49
60874;BME280;46715;40.642;-7.920;2023-10-31T10:02:16;74045.81;;;-146.45;97.71
60874;BME280;46715;40.642;-7.920;2023-10-31T10:04:16;74051.78;;;-146.45;100.00
60874;BME280;46715;40.642;-7.920;2023-10-31T10:06:18;74057.75;;;-146.45;100.00
60874;BME280;46715;40.642;-7.920;2023-10-31T10:08:22;74039.84;;;-146.45;100.00
60874;BME280;46715;40.642;-7.920;2023-10-31T10:10:24;74065.69;;;-146.45;98.41